Time;durP1;ratioP1;P1;durP2;ratioP2;P2;SDS_P1;SDS_P2;PMS_P1;PMS_P2;Temp;Humidity;BMP_temperature;BMP_pressure;BME280_temperature;BME280_humidity;BME280_pressure;Samples;Min_cycle;Max_cycle;Signal;HPM_P1;HPM_P2
2023/05/16 00:01:00;;;;;;;9.65;3.92;;;28.20;99.40;;;;;;5054463;28;20318;-47
2023/05/16 00:03:26;;;;;;;14.48;4.15;;;28.30;99.30;;;;;;5044510;28;20025;-53
2023/05/16 00:05:53;;;;;;;7.00;3.28;;;28.30;99.10;;;;;;5043539;28;20104;-49
2023/05/16 00:08:20;;;;;;;9.02;3.83;;;28.30;98.90;;;;;;5044292;28;20025;-47
2023/05/16 00:10:46;;;;;;;8.20;4.85;;;28.40;98.90;;;;;;5043937;28;20037;-47
2023/05/16 00:13:13;;;;;;;8.52;4.57;;;28.40;98.80;;;;;;5043306;28;20072;-46
2023/05/16 00:15:40;;;;;;;9.15;4.63;;;28.40;98.70;;;;;;5043551;28;20029;-45
2023/05/16 00:18:07;;;;;;;14.38;6.38;;;28.40;98.70;;;;;;5043930;28;20021;-48
2023/05/16 00:20:34;;;;;;;11.82;5.65;;;28.50;98.70;;;;;;5043514;28;20033;-44
2023/05/16 00:23:00;;;;;;;9.00;4.85;;;28.50;98.70;;;;;;5043923;28;20017;-45
2023/05/16 00:25:27;;;;;;;10.55;4.55;;;28.40;98.60;;;;;;5043834;28;20030;-44
2023/05/16 00:27:54;;;;;;;6.95;4.60;;;28.40;98.60;;;;;;5043827;28;20017;-52
2023/05/16 00:30:21;;;;;;;9.15;4.35;;;28.50;98.60;;;;;;5043835;28;20048;-49
2023/05/16 00:32:48;;;;;;;10.82;4.47;;;28.50;98.60;;;;;;5043583;28;20038;-48
2023/05/16 00:35:18;;;;;;;10.32;4.13;;;28.60;98.50;;;;;;5043904;28;20030;-47
2023/05/16 00:37:45;;;;;;;11.50;4.00;;;28.60;98.60;;;;;;5043922;28;20057;-53
2023/05/16 00:40:12;;;;;;;11.63;3.95;;;28.50;98.50;;;;;;5044408;28;20021;-45
2023/05/16 00:42:39;;;;;;;10.00;3.75;;;28.50;98.50;;;;;;5047647;28;20028;-47
2023/05/16 00:45:06;;;;;;;11.05;3.40;;;28.50;98.60;;;;;;5047608;28;20237;-52
2023/05/16 00:47:33;;;;;;;8.95;3.70;;;28.50;98.60;;;;;;5047775;28;20025;-53
2023/05/16 00:50:00;;;;;;;8.25;3.17;;;28.50;98.50;;;;;;5047829;28;20179;-47
2023/05/16 00:52:27;;;;;;;7.85;3.40;;;28.40;98.60;;;;;;5047388;28;20029;-46
2023/05/16 00:54:54;;;;;;;23.20;21.10;;;28.40;98.50;;;;;;5049364;28;20021;-43
2023/05/16 00:57:21;;;;;;;10.07;6.75;;;28.30;98.80;;;;;;5057057;28;20040;-43
2023/05/16 00:59:48;;;;;;;8.32;5.25;;;28.00;99.20;;;;;;5060975;28;20098;-41
2023/05/16 01:02:15;;;;;;;6.90;3.72;;;27.90;99.60;;;;;;5060149;28;20067;-44
2023/05/16 01:04:43;;;;;;;7.45;2.67;;;27.70;99.80;;;;;;5067672;28;20084;-44
2023/05/16 01:07:10;;;;;;;6.70;3.05;;;27.70;99.90;;;;;;5067653;28;20036;-44
2023/05/16 01:09:38;;;;;;;109.00;99.55;;;27.60;99.90;;;;;;5067372;28;20083;-43
2023/05/16 01:12:13;;;;;;;36.50;33.10;;;27.50;99.90;;;;;;5065573;28;20043;-46
2023/05/16 01:14:46;;;;;;;10.07;8.88;;;27.60;99.90;;;;;;5067435;28;20032;-44
2023/05/16 01:17:51;;;;;;;7.53;5.60;;;27.50;99.90;;;;;;5052941;28;20077;-46
2023/05/16 01:21:02;;;;;;;8.77;4.60;;;27.30;99.90;;;;;;5055639;28;20046;-46
2023/05/16 01:23:59;;;;;;;6.85;3.70;;;27.20;99.90;;;;;;5055412;28;20094;-43
2023/05/16 01:26:31;;;;;;;11.55;3.88;;;27.20;99.90;;;;;;5054727;28;20033;-47
2023/05/16 01:28:58;;;;;;;7.75;3.65;;;27.10;99.80;;;;;;5052777;28;20032;-48
2023/05/16 01:31:25;;;;;;;7.70;2.80;;;27.10;99.70;;;;;;5045813;28;20325;-47
2023/05/16 01:33:52;;;;;;;8.02;2.60;;;27.10;99.80;;;;;;5047057;28;20021;-52
2023/05/16 01:36:47;;;;;;;7.55;2.15;;;27.00;99.70;;;;;;5054781;28;20033;-53
2023/05/16 01:39:21;;;;;;;9.45;2.55;;;27.00;99.90;;;;;;5066779;28;20029;-50
2023/05/16 01:41:50;;;;;;;21.02;3.75;;;26.90;99.90;;;;;;5066269;28;20061;-55
2023/05/16 01:44:28;;;;;;;27.55;4.50;;;27.00;99.90;;;;;;5066719;28;20232;-50
2023/05/16 01:46:59;;;;;;;45.35;5.88;;;27.00;99.90;;;;;;5066357;28;20112;-46
2023/05/16 01:49:38;;;;;;;16.15;3.80;;;27.00;99.90;;;;;;5066531;28;20332;-53
2023/05/16 01:52:17;;;;;;;11.23;3.28;;;27.00;99.90;;;;;;5066446;28;20039;-52
2023/05/16 01:54:47;;;;;;;10.63;2.65;;;27.00;99.90;;;;;;5066413;28;20049;-46
2023/05/16 01:57:15;;;;;;;17.65;3.10;;;27.00;99.90;;;;;;5061391;28;20201;-54
2023/05/16 01:59:43;;;;;;;14.75;2.78;;;26.90;99.90;;;;;;5065628;28;20033;-48
2023/05/16 02:02:10;;;;;;;7.30;2.28;;;26.90;99.90;;;;;;5053433;28;20061;-48
2023/05/16 02:04:37;;;;;;;8.57;2.50;;;26.90;99.90;;;;;;5046258;28;20025;-56
2023/05/16 02:07:03;;;;;;;10.02;2.35;;;26.90;99.90;;;;;;5046284;28;20201;-50
2023/05/16 02:09:30;;;;;;;7.28;2.30;;;27.00;99.90;;;;;;5046165;28;20044;-49
2023/05/16 02:11:57;;;;;;;8.75;2.17;;;27.10;99.90;;;;;;5045979;28;20026;-51
2023/05/16 02:14:24;;;;;;;5.97;2.30;;;27.30;99.90;;;;;;5046396;28;20036;-47
2023/05/16 02:16:51;;;;;;;4.35;1.75;;;27.40;99.90;;;;;;5045875;28;20325;-44
2023/05/16 02:19:17;;;;;;;7.72;2.17;;;27.50;99.80;;;;;;5045740;28;20037;-49
2023/05/16 02:21:44;;;;;;;6.95;2.05;;;27.50;99.40;;;;;;5046362;28;20029;-45
2023/05/16 02:24:11;;;;;;;5.35;1.80;;;27.50;99.10;;;;;;5046517;28;20080;-45
2023/05/16 02:26:37;;;;;;;4.65;1.25;;;27.50;98.80;;;;;;5045861;28;20085;-47
2023/05/16 02:29:05;;;;;;;5.78;1.95;;;27.60;98.80;;;;;;5046849;28;20017;-49
2023/05/16 02:31:35;;;;;;;9.35;1.73;;;27.70;98.60;;;;;;5052598;28;20100;-50
2023/05/16 02:34:02;;;;;;;10.45;2.25;;;27.70;98.30;;;;;;5050374;28;20033;-53
2023/05/16 02:36:29;;;;;;;6.63;2.05;;;27.70;98.10;;;;;;5048539;28;20029;-48
2023/05/16 02:38:56;;;;;;;10.10;1.67;;;27.70;98.00;;;;;;5044481;28;20100;-54
2023/05/16 02:41:23;;;;;;;9.32;1.80;;;27.80;97.90;;;;;;5043826;28;20078;-44
2023/05/16 02:43:49;;;;;;;18.60;2.40;;;27.80;97.60;;;;;;5044288;28;20030;-48
2023/05/16 02:46:26;;;;;;;14.40;2.30;;;27.80;97.40;;;;;;5043804;28;20104;-47
2023/05/16 02:48:54;;;;;;;16.17;2.40;;;27.80;97.10;;;;;;5047441;28;20025;-50
2023/05/16 02:51:22;;;;;;;9.80;1.85;;;27.80;97.00;;;;;;5054565;28;20037;-46
2023/05/16 02:53:49;;;;;;;20.85;2.45;;;27.80;97.00;;;;;;5044541;28;20171;-53
2023/05/16 02:56:17;;;;;;;17.02;3.30;;;27.80;97.10;;;;;;5045405;28;20213;-55
2023/05/16 02:58:46;;;;;;;24.40;3.20;;;27.80;97.10;;;;;;5045380;28;20049;-51
2023/05/16 03:01:14;;;;;;;24.20;3.70;;;27.80;97.20;;;;;;5045255;28;20103;-54
2023/05/16 03:03:40;;;;;;;27.40;4.00;;;27.80;97.30;;;;;;5044851;28;20025;-47
2023/05/16 03:06:07;;;;;;;23.92;3.25;;;27.90;97.40;;;;;;5045124;28;20305;-45
2023/05/16 03:08:34;;;;;;;18.45;3.08;;;27.90;97.50;;;;;;5045273;28;20067;-48
2023/05/16 03:11:01;;;;;;;14.48;2.85;;;27.90;97.70;;;;;;5048652;28;20097;-46
2023/05/16 03:13:29;;;;;;;18.77;3.88;;;27.90;97.80;;;;;;5052728;28;20043;-46
2023/05/16 03:15:55;;;;;;;36.15;4.72;;;28.00;98.00;;;;;;5047686;28;20071;-50
2023/05/16 03:18:22;;;;;;;31.90;5.32;;;27.90;98.10;;;;;;5045218;28;20309;-44
2023/05/16 03:20:51;;;;;;;31.08;10.13;;;27.90;98.10;;;;;;5047527;28;20029;-50
2023/05/16 03:23:19;;;;;;;33.65;9.02;;;27.90;98.20;;;;;;5049492;28;20033;-49
2023/05/16 03:25:46;;;;;;;32.70;7.78;;;27.90;98.30;;;;;;5044745;28;20025;-50
2023/05/16 03:28:13;;;;;;;37.13;6.97;;;28.00;98.40;;;;;;5044748;28;20113;-51
2023/05/16 03:30:40;;;;;;;32.80;6.05;;;27.90;98.40;;;;;;5059909;28;20025;-48
2023/05/16 03:33:07;;;;;;;35.38;6.97;;;28.00;98.50;;;;;;5065037;28;20056;-55
2023/05/16 03:35:35;;;;;;;37.85;6.82;;;28.00;98.50;;;;;;5064874;28;20048;-46
2023/05/16 03:38:02;;;;;;;39.25;5.72;;;28.00;98.60;;;;;;5064912;28;20235;-45
2023/05/16 03:40:29;;;;;;;24.85;5.20;;;27.90;98.60;;;;;;5064293;28;20033;-44
2023/05/16 03:42:56;;;;;;;29.90;5.13;;;28.00;98.70;;;;;;5064691;28;20028;-47
2023/05/16 03:45:23;;;;;;;22.77;4.70;;;27.90;98.70;;;;;;5064470;28;20017;-49
2023/05/16 03:47:49;;;;;;;19.25;4.43;;;28.00;98.80;;;;;;5064527;28;20032;-47
2023/05/16 03:50:16;;;;;;;15.18;3.85;;;28.00;98.70;;;;;;5064325;28;20052;-45
2023/05/16 03:52:43;;;;;;;10.18;3.70;;;27.90;98.80;;;;;;5064444;28;20029;-48
2023/05/16 03:55:13;;;;;;;25.38;4.05;;;27.90;98.80;;;;;;5064247;28;20021;-46
2023/05/16 03:57:41;;;;;;;16.13;3.80;;;27.90;98.80;;;;;;5064321;28;20041;-46
2023/05/16 04:00:09;;;;;;;20.38;4.85;;;27.90;98.80;;;;;;5064084;28;20325;-51
2023/05/16 04:02:36;;;;;;;18.83;4.25;;;27.90;98.80;;;;;;5064277;28;20013;-49
2023/05/16 04:05:03;;;;;;;22.00;5.20;;;27.90;98.90;;;;;;5064209;28;20045;-44
2023/05/16 04:07:30;;;;;;;20.55;4.80;;;27.80;98.80;;;;;;5064165;28;20049;-45
2023/05/16 04:09:57;;;;;;;20.08;4.40;;;27.90;98.90;;;;;;5064063;28;20035;-45
2023/05/16 04:12:24;;;;;;;16.58;4.13;;;27.90;98.90;;;;;;5063908;28;20071;-46
2023/05/16 04:14:50;;;;;;;18.35;4.10;;;27.80;98.90;;;;;;5063155;28;20025;-52
2023/05/16 04:17:17;;;;;;;18.00;3.55;;;27.80;98.90;;;;;;5050747;28;20183;-47
2023/05/16 04:19:44;;;;;;;13.13;3.30;;;27.80;99.00;;;;;;5043785;28;20092;-47
2023/05/16 04:22:10;;;;;;;11.77;3.88;;;27.80;99.10;;;;;;5044081;28;20251;-48
2023/05/16 04:24:37;;;;;;;16.48;4.20;;;27.80;99.10;;;;;;5043942;28;20337;-46
2023/05/16 04:27:07;;;;;;;14.27;3.38;;;27.80;99.20;;;;;;5043808;28;20309;-50
2023/05/16 04:29:35;;;;;;;13.13;3.08;;;27.80;99.10;;;;;;5043832;28;20040;-51
2023/05/16 04:32:02;;;;;;;9.52;3.10;;;27.80;99.20;;;;;;5044027;28;20021;-51
2023/05/16 04:34:29;;;;;;;12.82;3.30;;;27.80;99.20;;;;;;5043765;28;20067;-60
2023/05/16 04:36:56;;;;;;;7.38;3.20;;;27.80;99.20;;;;;;5043851;28;20092;-49
2023/05/16 04:39:23;;;;;;;7.28;2.65;;;27.80;99.10;;;;;;5043612;28;20025;-45
2023/05/16 04:41:49;;;;;;;6.65;2.67;;;27.80;99.10;;;;;;5042337;28;20222;-44
2023/05/16 04:44:16;;;;;;;9.90;2.05;;;27.80;99.10;;;;;;5043726;28;20097;-46
2023/05/16 04:46:43;;;;;;;5.95;1.88;;;27.80;98.90;;;;;;5043827;28;20041;-47
2023/05/16 04:49:10;;;;;;;5.20;1.92;;;27.70;98.80;;;;;;5043520;28;20029;-46
2023/05/16 04:51:36;;;;;;;4.53;1.65;;;27.70;98.60;;;;;;5043702;28;20025;-54
2023/05/16 04:54:03;;;;;;;4.57;1.80;;;27.70;98.60;;;;;;5044107;28;20037;-52
2023/05/16 04:56:30;;;;;;;4.43;1.77;;;27.60;98.40;;;;;;5043530;28;20135;-45
2023/05/16 04:58:56;;;;;;;12.50;1.80;;;27.60;98.20;;;;;;5043806;28;20338;-55
2023/05/16 05:01:23;;;;;;;6.63;1.50;;;27.60;98.10;;;;;;5043570;28;20045;-47
2023/05/16 05:03:50;;;;;;;6.47;1.60;;;27.60;98.00;;;;;;5043878;28;20229;-56
2023/05/16 05:06:16;;;;;;;5.07;1.15;;;27.60;98.00;;;;;;5043544;28;20314;-51
2023/05/16 05:08:43;;;;;;;6.90;1.63;;;27.60;97.90;;;;;;5043901;28;20294;-48
2023/05/16 05:11:10;;;;;;;4.88;1.33;;;27.60;97.90;;;;;;5050273;28;20313;-48
2023/05/16 05:13:37;;;;;;;11.45;1.60;;;27.50;97.80;;;;;;5063730;28;20039;-53
2023/05/16 05:16:04;;;;;;;6.60;1.30;;;27.50;97.80;;;;;;5063712;28;20364;-44
2023/05/16 05:18:31;;;;;;;12.52;1.50;;;27.60;97.60;;;;;;5063593;28;20037;-45
2023/05/16 05:20:59;;;;;;;5.80;1.38;;;27.50;97.60;;;;;;5063251;28;20321;-44
2023/05/16 05:23:25;;;;;;;6.20;1.30;;;27.50;97.50;;;;;;5063715;28;20041;-44
2023/05/16 05:25:52;;;;;;;8.70;1.38;;;27.50;97.60;;;;;;5063301;28;20092;-53
2023/05/16 05:28:19;;;;;;;8.27;1.40;;;27.50;97.50;;;;;;5067428;28;20152;-45
2023/05/16 05:30:47;;;;;;;6.78;1.10;;;27.40;97.50;;;;;;5066917;28;20313;-47
2023/05/16 05:33:20;;;;;;;8.98;1.77;;;27.50;97.50;;;;;;5067252;28;20044;-51
2023/05/16 05:35:46;;;;;;;7.20;1.40;;;27.50;97.40;;;;;;5067019;28;20029;-45
2023/05/16 05:38:13;;;;;;;4.32;1.33;;;27.50;97.30;;;;;;5067205;28;20041;-46
2023/05/16 05:40:40;;;;;;;6.95;1.83;;;27.50;97.30;;;;;;5066666;28;20021;-47
2023/05/16 05:43:06;;;;;;;8.02;1.33;;;27.40;97.30;;;;;;5067024;28;20033;-47
2023/05/16 05:45:33;;;;;;;7.60;1.50;;;27.40;97.40;;;;;;5066739;28;20027;-55
2023/05/16 05:48:00;;;;;;;6.93;1.30;;;27.40;97.40;;;;;;5066849;28;20017;-47
2023/05/16 05:50:26;;;;;;;5.45;1.33;;;27.40;97.40;;;;;;5066760;28;20041;-47
2023/05/16 05:52:54;;;;;;;8.80;1.77;;;27.40;97.40;;;;;;5066850;28;20025;-49
2023/05/16 05:55:21;;;;;;;7.40;1.52;;;27.30;97.30;;;;;;5066433;28;20083;-47
2023/05/16 05:57:47;;;;;;;6.13;1.38;;;27.30;97.30;;;;;;5066335;28;20017;-51
2023/05/16 06:00:14;;;;;;;6.50;1.30;;;27.30;97.40;;;;;;5066458;28;20198;-47
2023/05/16 06:02:41;;;;;;;7.03;1.30;;;27.20;97.40;;;;;;5066415;28;20309;-48
2023/05/16 06:05:08;;;;;;;7.72;1.50;;;27.20;97.40;;;;;;5066427;28;20017;-48
2023/05/16 06:07:35;;;;;;;6.47;1.40;;;27.20;97.50;;;;;;5066527;28;20120;-46
2023/05/16 06:10:04;;;;;;;8.30;1.38;;;27.20;97.40;;;;;;5066170;28;20349;-48
2023/05/16 06:12:30;;;;;;;6.80;1.63;;;27.20;97.40;;;;;;5066472;28;20021;-50
2023/05/16 06:14:57;;;;;;;9.07;1.45;;;27.20;97.40;;;;;;5066176;28;20036;-45
2023/05/16 06:17:24;;;;;;;7.95;1.10;;;27.20;97.40;;;;;;5066200;28;20096;-47
2023/05/16 06:19:50;;;;;;;6.40;1.40;;;27.20;97.40;;;;;;5066038;28;20044;-45
2023/05/16 06:22:17;;;;;;;5.78;1.10;;;27.20;97.40;;;;;;5066059;28;20017;-46
2023/05/16 06:24:44;;;;;;;6.60;1.40;;;27.20;97.40;;;;;;5066239;28;20084;-54
2023/05/16 06:27:10;;;;;;;7.70;1.30;;;27.20;97.40;;;;;;5065946;28;20151;-43
2023/05/16 06:29:37;;;;;;;4.88;1.10;;;27.20;97.40;;;;;;5065936;28;20256;-47
2023/05/16 06:32:04;;;;;;;7.80;1.40;;;27.20;97.40;;;;;;5065717;28;20096;-45
2023/05/16 06:34:31;;;;;;;5.93;1.13;;;27.20;97.40;;;;;;5065811;28;20495;-44
2023/05/16 06:36:58;;;;;;;5.20;1.40;;;27.10;97.40;;;;;;5065773;28;20044;-47
2023/05/16 06:39:25;;;;;;;5.35;1.30;;;27.20;97.40;;;;;;5064778;28;20321;-50
2023/05/16 06:41:52;;;;;;;7.22;1.00;;;27.20;97.40;;;;;;5065602;28;20025;-47
2023/05/16 06:44:18;;;;;;;5.82;1.50;;;27.10;97.40;;;;;;5065808;28;20324;-46
2023/05/16 06:46:45;;;;;;;10.07;1.30;;;27.10;97.40;;;;;;5065721;28;20028;-48
2023/05/16 06:49:12;;;;;;;10.43;1.52;;;27.00;97.40;;;;;;5065460;28;20051;-47
2023/05/16 06:51:39;;;;;;;6.28;1.15;;;27.00;97.40;;;;;;5065508;28;20041;-45
2023/05/16 06:54:06;;;;;;;4.70;1.38;;;27.00;97.50;;;;;;5065977;28;20024;-53
2023/05/16 06:56:32;;;;;;;6.57;1.00;;;27.10;97.50;;;;;;5065306;28;20103;-51
2023/05/16 06:59:00;;;;;;;5.53;1.30;;;27.00;97.50;;;;;;5065404;28;20099;-54
2023/05/16 07:01:27;;;;;;;12.05;1.58;;;27.10;97.40;;;;;;5065330;28;20032;-55
2023/05/16 07:03:54;;;;;;;8.23;1.27;;;27.00;97.60;;;;;;5065580;28;20041;-53
2023/05/16 07:06:21;;;;;;;7.15;1.35;;;27.00;97.40;;;;;;5065274;28;20021;-59
2023/05/16 07:08:47;;;;;;;12.02;1.52;;;27.00;97.40;;;;;;5065115;28;20092;-46
2023/05/16 07:11:14;;;;;;;8.63;1.85;;;27.00;97.30;;;;;;5065006;28;20087;-43
2023/05/16 07:13:41;;;;;;;7.78;1.88;;;27.00;97.50;;;;;;5065573;28;20051;-43
2023/05/16 07:16:07;;;;;;;9.13;2.83;;;27.00;97.30;;;;;;5065121;28;20045;-42
2023/05/16 07:18:34;;;;;;;9.10;2.72;;;27.00;97.20;;;;;;5065244;28;20052;-46
2023/05/16 07:21:01;;;;;;;10.27;2.45;;;27.00;97.20;;;;;;5064865;28;20128;-44
2023/05/16 07:23:27;;;;;;;6.18;2.20;;;27.00;97.20;;;;;;5065216;28;20063;-47
2023/05/16 07:25:54;;;;;;;5.15;1.63;;;27.00;97.30;;;;;;5064777;28;20024;-46
2023/05/16 07:28:22;;;;;;;4.53;1.50;;;27.00;97.20;;;;;;5065123;28;20089;-47
2023/05/16 07:30:49;;;;;;;8.88;1.92;;;27.00;97.10;;;;;;5064698;28;20028;-49
2023/05/16 07:33:15;;;;;;;8.52;1.33;;;27.00;97.10;;;;;;5064914;28;20100;-46
2023/05/16 07:35:42;;;;;;;7.70;1.45;;;27.00;97.10;;;;;;5064695;28;20123;-48
2023/05/16 07:38:09;;;;;;;7.15;1.70;;;27.00;97.10;;;;;;5064945;28;20024;-45
2023/05/16 07:40:36;;;;;;;5.90;1.33;;;26.90;97.00;;;;;;5064398;28;20047;-45
2023/05/16 07:43:02;;;;;;;3.63;1.23;;;27.00;97.00;;;;;;5064719;28;20298;-46
2023/05/16 07:45:29;;;;;;;6.97;1.98;;;26.90;96.90;;;;;;5064563;28;20033;-47
2023/05/16 07:47:56;;;;;;;9.80;1.90;;;26.90;97.00;;;;;;5064515;28;20293;-48
2023/05/16 07:50:23;;;;;;;4.90;1.50;;;27.00;97.10;;;;;;5064378;28;20028;-50
2023/05/16 07:52:50;;;;;;;5.38;1.50;;;27.00;97.00;;;;;;5064513;28;20225;-46
2023/05/16 07:55:16;;;;;;;6.07;1.67;;;26.90;96.90;;;;;;5064231;28;20021;-44
2023/05/16 07:57:43;;;;;;;7.95;1.48;;;27.00;97.00;;;;;;5064330;28;20301;-50
2023/05/16 08:00:10;;;;;;;5.00;1.23;;;26.90;96.90;;;;;;5064184;28;20108;-57
2023/05/16 08:02:37;;;;;;;5.15;1.10;;;26.90;96.90;;;;;;5064213;28;20017;-53
2023/05/16 08:05:04;;;;;;;7.05;1.25;;;27.00;97.00;;;;;;5064234;28;20032;-56
2023/05/16 08:07:31;;;;;;;9.82;1.67;;;26.90;97.00;;;;;;5064219;28;20025;-48
2023/05/16 08:09:58;;;;;;;5.00;1.08;;;26.90;97.00;;;;;;5063930;28;20032;-50
2023/05/16 08:12:26;;;;;;;5.25;1.17;;;26.90;97.00;;;;;;5064251;28;20032;-46
2023/05/16 08:14:52;;;;;;;6.53;1.20;;;26.90;97.00;;;;;;5064189;28;20037;-44
2023/05/16 08:17:19;;;;;;;9.13;1.30;;;26.90;97.00;;;;;;5064105;28;20071;-48
2023/05/16 08:19:46;;;;;;;5.63;1.15;;;26.90;96.90;;;;;;5063912;28;20391;-46
2023/05/16 08:22:12;;;;;;;7.88;1.63;;;26.90;96.90;;;;;;5064044;28;20037;-44
2023/05/16 08:24:39;;;;;;;5.32;1.23;;;26.90;96.90;;;;;;5063826;28;20021;-50
2023/05/16 08:27:06;;;;;;;4.13;1.05;;;26.90;96.90;;;;;;5063924;28;20020;-48
2023/05/16 08:29:32;;;;;;;10.90;2.10;;;26.90;96.90;;;;;;5063850;28;20029;-46
2023/05/16 08:31:59;;;;;;;13.05;2.70;;;26.80;96.80;;;;;;5063771;28;20020;-54
2023/05/16 08:34:26;;;;;;;10.95;2.67;;;26.80;96.80;;;;;;5063746;28;20033;-51
2023/05/16 08:36:53;;;;;;;8.38;2.10;;;26.80;96.90;;;;;;5063793;28;20025;-47
2023/05/16 08:39:20;;;;;;;7.20;1.65;;;26.80;96.80;;;;;;5063784;28;20028;-47
2023/05/16 08:41:47;;;;;;;8.90;1.70;;;26.80;96.70;;;;;;5063542;28;20045;-50
2023/05/16 08:44:20;;;;;;;5.85;1.40;;;26.80;96.70;;;;;;5063757;28;20316;-44
2023/05/16 08:46:52;;;;;;;13.05;1.63;;;26.80;97.00;;;;;;5063546;28;20358;-55
2023/05/16 08:49:19;;;;;;;4.95;1.20;;;26.80;96.70;;;;;;5063683;28;20025;-44
2023/05/16 08:51:47;;;;;;;7.10;1.38;;;26.80;96.70;;;;;;5063620;28;20032;-47
2023/05/16 08:54:15;;;;;;;7.32;1.63;;;26.80;96.80;;;;;;5063488;28;20032;-47
2023/05/16 08:56:44;;;;;;;7.05;1.30;;;26.80;96.70;;;;;;5063636;28;20216;-49
2023/05/16 08:59:11;;;;;;;5.18;1.25;;;26.80;96.70;;;;;;5063568;28;20052;-47
2023/05/16 09:01:38;;;;;;;8.07;1.20;;;26.80;96.80;;;;;;5064756;28;20025;-47
2023/05/16 09:04:08;;;;;;;7.25;1.23;;;26.70;96.70;;;;;;5068048;28;20029;-44
2023/05/16 09:06:35;;;;;;;8.73;1.23;;;26.70;96.70;;;;;;5067482;28;20021;-51
2023/05/16 09:09:03;;;;;;;4.10;1.40;;;26.70;96.80;;;;;;5067357;28;20033;-52
2023/05/16 09:11:30;;;;;;;5.65;1.20;;;26.60;96.80;;;;;;5067406;28;20033;-48
2023/05/16 09:13:57;;;;;;;4.72;1.00;;;26.70;96.80;;;;;;5067313;28;20021;-50
2023/05/16 09:16:23;;;;;;;7.45;0.90;;;26.70;96.90;;;;;;5067237;28;20095;-45
2023/05/16 09:18:59;;;;;;;7.68;1.38;;;26.60;96.70;;;;;;5067720;28;20043;-47
2023/05/16 09:21:33;;;;;;;7.10;1.58;;;26.60;96.60;;;;;;5067237;28;20092;-47
2023/05/16 09:24:04;;;;;;;4.68;1.40;;;26.60;96.60;;;;;;5067647;28;20021;-45
2023/05/16 09:26:37;;;;;;;6.60;1.38;;;26.60;96.60;;;;;;5067118;28;20325;-45
2023/05/16 09:29:11;;;;;;;6.70;1.38;;;26.60;96.60;;;;;;5066910;28;20105;-49
2023/05/16 09:31:38;;;;;;;6.75;0.98;;;26.60;96.70;;;;;;5066917;28;20029;-45
2023/05/16 09:34:10;;;;;;;4.10;1.20;;;26.60;96.70;;;;;;5067508;28;20016;-51
2023/05/16 09:36:37;;;;;;;6.10;1.48;;;26.60;96.70;;;;;;5066928;28;20033;-49
2023/05/16 09:39:06;;;;;;;3.95;1.10;;;26.60;96.80;;;;;;5067395;28;20029;-48
2023/05/16 09:41:36;;;;;;;6.13;1.55;;;26.60;96.80;;;;;;5066714;28;20088;-45
2023/05/16 09:44:06;;;;;;;7.78;1.50;;;26.60;96.90;;;;;;5067360;28;20031;-52
2023/05/16 09:46:35;;;;;;;5.63;1.40;;;26.60;96.90;;;;;;5066759;28;20029;-54
2023/05/16 09:49:02;;;;;;;7.88;1.67;;;26.60;97.10;;;;;;5066987;28;20290;-47
2023/05/16 09:51:30;;;;;;;6.82;1.52;;;26.60;96.90;;;;;;5066770;28;20343;-52
2023/05/16 09:53:59;;;;;;;5.18;1.40;;;26.60;96.90;;;;;;5067091;28;20037;-55
2023/05/16 09:56:26;;;;;;;11.43;1.63;;;26.60;96.90;;;;;;5066475;28;20028;-49
2023/05/16 09:58:53;;;;;;;4.43;2.05;;;26.60;96.90;;;;;;5066329;28;20104;-54
2023/05/16 10:01:20;;;;;;;8.52;3.45;;;26.60;96.90;;;;;;5066340;28;20100;-49
2023/05/16 10:03:47;;;;;;;7.15;3.17;;;26.60;96.90;;;;;;5066791;28;20024;-45
2023/05/16 10:06:15;;;;;;;8.30;2.70;;;26.60;96.90;;;;;;5066397;28;20029;-45
2023/05/16 10:08:42;;;;;;;5.70;2.13;;;26.60;97.00;;;;;;5066698;28;20109;-45
2023/05/16 10:11:10;;;;;;;5.38;1.92;;;26.50;96.90;;;;;;5066205;28;20040;-47
2023/05/16 10:13:37;;;;;;;7.53;2.03;;;26.50;97.00;;;;;;5065348;28;20209;-47
2023/05/16 10:16:10;;;;;;;8.18;1.88;;;26.50;97.00;;;;;;5066199;28;20029;-52
2023/05/16 10:18:38;;;;;;;4.13;1.70;;;26.50;97.10;;;;;;5066386;28;20025;-47
2023/05/16 10:21:14;;;;;;;9.70;1.70;;;26.50;97.00;;;;;;5066090;28;20021;-50
2023/05/16 10:23:47;;;;;;;12.20;1.88;;;26.50;97.10;;;;;;5066221;28;20029;-50
2023/05/16 10:26:16;;;;;;;7.50;1.92;;;26.40;97.10;;;;;;5066063;28;20024;-48
2023/05/16 10:28:43;;;;;;;8.43;1.83;;;26.50;97.10;;;;;;5066184;28;20288;-45
2023/05/16 10:31:10;;;;;;;7.97;1.70;;;26.50;97.00;;;;;;5065670;28;20051;-46
2023/05/16 10:33:38;;;;;;;7.80;1.90;;;26.50;97.00;;;;;;5066198;28;20029;-51
2023/05/16 10:36:05;;;;;;;10.35;2.35;;;26.50;97.00;;;;;;5065829;28;20021;-50
2023/05/16 10:38:34;;;;;;;8.20;2.38;;;26.50;96.90;;;;;;5066000;28;20228;-47
2023/05/16 10:41:01;;;;;;;11.45;2.40;;;26.50;97.00;;;;;;5065656;28;20028;-50
2023/05/16 10:43:29;;;;;;;6.68;1.98;;;26.50;96.90;;;;;;5066032;28;20021;-45
2023/05/16 10:46:08;;;;;;;10.70;2.30;;;26.50;96.90;;;;;;5065401;28;20335;-48
2023/05/16 10:48:37;;;;;;;8.77;2.38;;;26.50;96.90;;;;;;5065210;28;20080;-49
2023/05/16 10:51:33;;;;;;;7.32;2.67;;;26.50;97.00;;;;;;5065418;28;20043;-49
2023/05/16 10:54:13;;;;;;;11.73;2.92;;;26.50;97.00;;;;;;5065885;28;20029;-49
2023/05/16 10:56:42;;;;;;;10.88;5.60;;;26.50;97.10;;;;;;5065423;28;20075;-45
2023/05/16 10:59:27;;;;;;;14.18;7.80;;;26.50;97.10;;;;;;5065201;28;20045;-45
2023/05/16 11:01:55;;;;;;;19.65;10.27;;;26.50;97.10;;;;;;5065173;28;20041;-46
2023/05/16 11:04:22;;;;;;;21.58;14.25;;;26.50;97.10;;;;;;5065308;28;20051;-45
2023/05/16 11:06:53;;;;;;;30.75;22.98;;;26.50;97.00;;;;;;5065086;28;20028;-50
2023/05/16 11:09:21;;;;;;;36.03;24.40;;;26.50;97.00;;;;;;5065135;28;20063;-44
2023/05/16 11:11:59;;;;;;;34.85;19.90;;;26.50;96.70;;;;;;5065061;28;20317;-45
2023/05/16 11:14:32;;;;;;;54.80;36.30;;;26.20;97.00;;;;;;5065045;28;20211;-46
2023/05/16 11:17:20;;;;;;;55.03;43.63;;;26.00;97.10;;;;;;5065205;28;20021;-44
2023/05/16 11:19:51;;;;;;;76.40;52.97;;;25.90;97.70;;;;;;5065041;28;20202;-46
2023/05/16 11:22:25;;;;;;;43.10;29.80;;;25.90;97.80;;;;;;5065073;28;20201;-53
2023/05/16 11:25:06;;;;;;;28.20;21.10;;;25.90;97.90;;;;;;5064290;28;20260;-44
2023/05/16 11:27:51;;;;;;;17.45;8.02;;;25.90;98.10;;;;;;5065007;28;20028;-45
2023/05/16 11:30:19;;;;;;;16.58;5.90;;;25.90;98.50;;;;;;5064790;28;20344;-52
2023/05/16 11:32:48;;;;;;;17.80;6.00;;;25.80;98.10;;;;;;5064777;28;20027;-48
2023/05/16 11:35:16;;;;;;;13.98;6.40;;;25.90;98.50;;;;;;5064590;28;20036;-46
2023/05/16 11:37:45;;;;;;;16.95;7.13;;;26.00;98.30;;;;;;5064902;28;20070;-46
2023/05/16 11:40:13;;;;;;;14.70;6.22;;;26.10;98.00;;;;;;5064769;28;20044;-47
2023/05/16 11:42:47;;;;;;;13.32;5.50;;;26.30;97.80;;;;;;5064369;28;20088;-48
2023/05/16 11:45:18;;;;;;;13.73;4.85;;;26.30;97.60;;;;;;5064640;28;20025;-46
2023/05/16 11:47:49;;;;;;;13.27;4.15;;;26.40;97.50;;;;;;5064593;28;20092;-46
2023/05/16 11:50:18;;;;;;;13.40;3.80;;;26.50;97.50;;;;;;5064269;28;20305;-47
2023/05/16 11:52:47;;;;;;;13.10;4.55;;;26.60;97.40;;;;;;5064206;28;20039;-53
2023/05/16 11:55:17;;;;;;;12.75;4.25;;;26.60;97.20;;;;;;5064286;28;20029;-53
2023/05/16 11:57:44;;;;;;;11.63;3.78;;;26.70;97.20;;;;;;5064287;28;20032;-49
2023/05/16 12:00:16;;;;;;;13.45;3.80;;;26.70;97.20;;;;;;5064147;28;20059;-46
2023/05/16 12:02:49;;;;;;;9.55;2.90;;;26.80;97.20;;;;;;5064083;28;20132;-47
2023/05/16 12:05:17;;;;;;;10.77;3.28;;;26.80;97.10;;;;;;5064158;28;20076;-49
2023/05/16 12:07:45;;;;;;;11.65;2.65;;;26.80;97.00;;;;;;5064278;28;20028;-46
2023/05/16 12:10:14;;;;;;;5.60;2.10;;;26.80;96.90;;;;;;5063955;28;20040;-46
2023/05/16 12:12:43;;;;;;;10.38;1.90;;;26.90;96.90;;;;;;5064279;28;20025;-47
2023/05/16 12:15:12;;;;;;;6.80;2.17;;;26.90;96.90;;;;;;5063989;28;20091;-53
2023/05/16 12:17:40;;;;;;;9.05;1.95;;;26.90;96.90;;;;;;5064327;28;20218;-56
2023/05/16 12:20:13;;;;;;;8.45;1.80;;;26.90;96.80;;;;;;5063928;28;20252;-54
2023/05/16 12:22:41;;;;;;;6.80;1.73;;;27.00;96.90;;;;;;5063959;28;20189;-48
2023/05/16 12:25:31;;;;;;;3.65;1.42;;;27.00;96.80;;;;;;5063948;28;20029;-44
2023/05/16 12:27:59;;;;;;;8.52;1.90;;;27.00;96.70;;;;;;5063716;28;20020;-51
2023/05/16 12:30:28;;;;;;;4.63;1.60;;;27.10;96.70;;;;;;5063910;28;20059;-52
2023/05/16 12:33:09;;;;;;;10.48;1.92;;;27.10;96.60;;;;;;5063950;28;20031;-46
2023/05/16 12:35:39;;;;;;;10.67;2.50;;;27.10;96.50;;;;;;5063194;28;20025;-46
2023/05/16 12:38:10;;;;;;;6.82;1.90;;;27.10;96.50;;;;;;5063885;28;20032;-45
2023/05/16 12:40:38;;;;;;;13.60;2.47;;;27.10;96.40;;;;;;5063578;28;20194;-45
2023/05/16 12:43:16;;;;;;;12.75;2.45;;;27.10;96.40;;;;;;5064222;28;20040;-46
2023/05/16 12:45:51;;;;;;;6.10;1.63;;;27.20;96.40;;;;;;5063645;28;20037;-49
2023/05/16 12:48:18;;;;;;;5.47;1.73;;;27.20;96.30;;;;;;5063972;28;20017;-44
2023/05/16 12:50:48;;;;;;;6.32;1.85;;;27.20;96.30;;;;;;5063607;28;20025;-46